ENGK

Gullknapp Flpl Airport

Norway
METAR ENGK 251250Z 14006KT 110V210 9999 FEW049 26/07 Q1027
Observed Flight Rules
May-25 @ 12:50 UTC (10 hours ago) Visual Flight Rules
Wind Visibility Clouds
140° at 6 knots 10,000+ meters
  • Few at 4,900' AGL
Temperatures Readings
Current 26°C / 79°F
Dewpoint 7°C / 45°F
Humidity 30%
Altimeter 30.32" Hg
Pressure 1027 hPa
Elevation 119
METAR ENGK 251250Z 14006KT 110V210 9999 FEW049 26/07 Q1027
Observed Flight Rules
May-25 @ 12:50 UTC
(10 hours ago)
VFR
Wind Visibility
140° at 6 knots 10,000+ meters
Clouds
  • Few at 4,900' AGL
Temperature Dewpoint
26°C / 79°F 7°C / 45°F
Humidity Altimeter Pressure
30% 30.32" Hg 1027 hPa